sensor_id;sensor_type;location;lat;lon;timestamp;pressure;altitude;pressure_sealevel;temperature;humidity
34328;BME280;20588;48.840;10.064;2023-04-02T00:08:04;95673.22;;;7.99;nan
34328;BME280;20588;48.840;10.064;2023-04-02T00:10:49;95678.78;;;7.96;nan
34328;BME280;20588;48.840;10.064;2023-04-02T00:13:19;95676.22;;;7.96;nan
34328;BME280;20588;48.840;10.064;2023-04-02T00:15:49;95673.97;;;8.00;nan
34328;BME280;20588;48.840;10.064;2023-04-02T00:18:19;95679.75;;;7.95;nan
34328;BME280;20588;48.840;10.064;2023-04-02T00:23:41;95686.88;;;7.93;nan
34328;BME280;20588;48.840;10.064;2023-04-02T00:26:44;95680.81;;;7.88;nan
34328;BME280;20588;48.840;10.064;2023-04-02T00:29:13;95690.84;;;7.89;nan
34328;BME280;20588;48.840;10.064;2023-04-02T00:31:45;95688.88;;;7.91;nan
34328;BME280;20588;48.840;10.064;2023-04-02T00:34:21;95682.84;;;7.86;nan
34328;BME280;20588;48.840;10.064;2023-04-02T00:36:49;95688.16;;;7.84;nan
34328;BME280;20588;48.840;10.064;2023-04-02T00:39:25;95684.38;;;7.87;nan
34328;BME280;20588;48.840;10.064;2023-04-02T00:41:57;95685.41;;;7.86;nan
34328;BME280;20588;48.840;10.064;2023-04-02T00:44:34;95689.94;;;7.84;nan
34328;BME280;20588;48.840;10.064;2023-04-02T00:47:10;95685.03;;;7.82;nan
34328;BME280;20588;48.840;10.064;2023-04-02T00:49:40;95683.03;;;7.84;nan
34328;BME280;20588;48.840;10.064;2023-04-02T00:52:13;95689.34;;;7.82;nan
34328;BME280;20588;48.840;10.064;2023-04-02T00:54:47;95692.13;;;7.80;nan
34328;BME280;20588;48.840;10.064;2023-04-02T00:57:18;95690.56;;;7.79;nan
34328;BME280;20588;48.840;10.064;2023-04-02T01:02:38;95688.22;;;7.78;nan
34328;BME280;20588;48.840;10.064;2023-04-02T01:10:31;95691.38;;;7.80;nan
34328;BME280;20588;48.840;10.064;2023-04-02T01:15:41;95687.44;;;7.77;nan
34328;BME280;20588;48.840;10.064;2023-04-02T01:29:04;95690.28;;;7.69;nan
34328;BME280;20588;48.840;10.064;2023-04-02T01:31:32;95700.75;;;7.68;nan
34328;BME280;20588;48.840;10.064;2023-04-02T01:33:59;95697.38;;;7.67;nan
34328;BME280;20588;48.840;10.064;2023-04-02T01:36:36;95696.81;;;7.65;nan
34328;BME280;20588;48.840;10.064;2023-04-02T01:47:09;95701.81;;;7.60;nan
34328;BME280;20588;48.840;10.064;2023-04-02T01:49:36;95717.94;;;7.61;nan
34328;BME280;20588;48.840;10.064;2023-04-02T01:52:02;95714.59;;;7.60;nan
34328;BME280;20588;48.840;10.064;2023-04-02T01:54:28;95712.03;;;7.60;nan
34328;BME280;20588;48.840;10.064;2023-04-02T01:56:55;95713.03;;;7.59;nan
34328;BME280;20588;48.840;10.064;2023-04-02T01:59:22;95715.03;;;7.57;nan
34328;BME280;20588;48.840;10.064;2023-04-02T02:02:03;95719.72;;;7.60;nan
34328;BME280;20588;48.840;10.064;2023-04-02T02:04:31;95724.84;;;7.60;nan
34328;BME280;20588;48.840;10.064;2023-04-02T02:06:58;95721.69;;;7.58;nan
34328;BME280;20588;48.840;10.064;2023-04-02T02:09:28;95726.41;;;7.61;nan
34328;BME280;20588;48.840;10.064;2023-04-02T02:11:58;95726.59;;;7.60;nan
34328;BME280;20588;48.840;10.064;2023-04-02T02:14:26;95735.09;;;7.60;nan
34328;BME280;20588;48.840;10.064;2023-04-02T02:16:55;95734.88;;;7.62;nan
34328;BME280;20588;48.840;10.064;2023-04-02T02:19:31;95732.66;;;7.65;nan
34328;BME280;20588;48.840;10.064;2023-04-02T02:22:07;95738.19;;;7.62;nan
34328;BME280;20588;48.840;10.064;2023-04-02T02:24:35;95742.75;;;7.60;nan
34328;BME280;20588;48.840;10.064;2023-04-02T02:32:54;95742.34;;;7.63;nan
34328;BME280;20588;48.840;10.064;2023-04-02T02:35:27;95747.47;;;7.63;nan
34328;BME280;20588;48.840;10.064;2023-04-02T02:40:55;95741.53;;;7.63;nan
34328;BME280;20588;48.840;10.064;2023-04-02T02:43:23;95746.09;;;7.61;nan
34328;BME280;20588;48.840;10.064;2023-04-02T02:45:53;95754.56;;;7.61;nan
34328;BME280;20588;48.840;10.064;2023-04-02T02:48:23;95753.00;;;7.60;nan
34328;BME280;20588;48.840;10.064;2023-04-02T02:50:53;95747.88;;;7.60;nan
34328;BME280;20588;48.840;10.064;2023-04-02T02:53:22;95754.78;;;7.60;nan
34328;BME280;20588;48.840;10.064;2023-04-02T02:55:55;95762.44;;;7.60;nan
34328;BME280;20588;48.840;10.064;2023-04-02T02:58:28;95764.78;;;7.61;nan
34328;BME280;20588;48.840;10.064;2023-04-02T03:00:57;95765.22;;;7.58;nan
34328;BME280;20588;48.840;10.064;2023-04-02T03:03:26;95771.34;;;7.57;nan
34328;BME280;20588;48.840;10.064;2023-04-02T03:05:56;95767.94;;;7.63;nan
34328;BME280;20588;48.840;10.064;2023-04-02T03:08:50;95772.09;;;7.58;nan
34328;BME280;20588;48.840;10.064;2023-04-02T03:11:32;95764.63;;;7.56;nan
34328;BME280;20588;48.840;10.064;2023-04-02T03:14:25;95782.34;;;7.58;nan
34328;BME280;20588;48.840;10.064;2023-04-02T03:17:04;95777.44;;;7.56;nan
34328;BME280;20588;48.840;10.064;2023-04-02T03:19:43;95777.66;;;7.55;nan
34328;BME280;20588;48.840;10.064;2023-04-02T03:25:15;95790.81;;;7.58;nan
34328;BME280;20588;48.840;10.064;2023-04-02T03:27:48;95792.25;;;7.54;nan
34328;BME280;20588;48.840;10.064;2023-04-02T03:30:46;95800.69;;;7.55;nan
34328;BME280;20588;48.840;10.064;2023-04-02T03:33:22;95798.31;;;7.53;nan
34328;BME280;20588;48.840;10.064;2023-04-02T03:38:46;95805.25;;;7.53;nan
34328;BME280;20588;48.840;10.064;2023-04-02T03:44:14;95806.59;;;7.55;nan
34328;BME280;20588;48.840;10.064;2023-04-02T03:46:48;95810.91;;;7.55;nan
34328;BME280;20588;48.840;10.064;2023-04-02T03:49:37;95812.50;;;7.56;nan
34328;BME280;20588;48.840;10.064;2023-04-02T03:52:13;95816.41;;;7.58;nan
34328;BME280;20588;48.840;10.064;2023-04-02T03:54:43;95816.63;;;7.57;nan
34328;BME280;20588;48.840;10.064;2023-04-02T03:57:24;95823.72;;;7.55;nan
34328;BME280;20588;48.840;10.064;2023-04-02T04:02:57;95824.31;;;7.57;nan
34328;BME280;20588;48.840;10.064;2023-04-02T04:05:29;95834.53;;;7.57;nan
34328;BME280;20588;48.840;10.064;2023-04-02T04:08:01;95839.28;;;7.53;nan
34328;BME280;20588;48.840;10.064;2023-04-02T04:10:30;95837.13;;;7.50;nan
34328;BME280;20588;48.840;10.064;2023-04-02T04:13:05;95840.69;;;7.49;nan
34328;BME280;20588;48.840;10.064;2023-04-02T04:15:40;95850.72;;;7.51;nan
34328;BME280;20588;48.840;10.064;2023-04-02T04:23:46;95858.41;;;7.51;nan
34328;BME280;20588;48.840;10.064;2023-04-02T04:26:25;95856.06;;;7.49;nan
34328;BME280;20588;48.840;10.064;2023-04-02T04:29:31;95857.81;;;7.49;nan
34328;BME280;20588;48.840;10.064;2023-04-02T04:32:44;95860.38;;;7.49;nan
34328;BME280;20588;48.840;10.064;2023-04-02T04:35:36;95860.59;;;7.47;nan
34328;BME280;20588;48.840;10.064;2023-04-02T04:38:18;95858.63;;;7.49;nan
34328;BME280;20588;48.840;10.064;2023-04-02T04:41:11;95870.41;;;7.50;nan
34328;BME280;20588;48.840;10.064;2023-04-02T04:43:51;95879.69;;;7.51;nan
34328;BME280;20588;48.840;10.064;2023-04-02T04:46:33;95885.78;;;7.50;nan
34328;BME280;20588;48.840;10.064;2023-04-02T04:54:25;95887.16;;;7.53;nan
34328;BME280;20588;48.840;10.064;2023-04-02T04:57:00;95891.28;;;7.54;nan
34328;BME280;20588;48.840;10.064;2023-04-02T04:59:38;95893.63;;;7.55;nan
34328;BME280;20588;48.840;10.064;2023-04-02T05:02:16;95895.38;;;7.55;nan
34328;BME280;20588;48.840;10.064;2023-04-02T05:04:48;95905.41;;;7.56;nan
34328;BME280;20588;48.840;10.064;2023-04-02T05:07:22;95900.09;;;7.58;nan
34328;BME280;20588;48.840;10.064;2023-04-02T05:09:55;95911.13;;;7.58;nan
34328;BME280;20588;48.840;10.064;2023-04-02T05:12:31;95912.34;;;7.56;nan
34328;BME280;20588;48.840;10.064;2023-04-02T05:15:15;95913.09;;;7.56;nan
34328;BME280;20588;48.840;10.064;2023-04-02T05:20:55;95911.34;;;7.57;nan
34328;BME280;20588;48.840;10.064;2023-04-02T05:23:29;95920.38;;;7.59;nan
34328;BME280;20588;48.840;10.064;2023-04-02T05:29:10;95928.44;;;7.63;nan
34328;BME280;20588;48.840;10.064;2023-04-02T05:31:46;95930.38;;;7.67;nan
34328;BME280;20588;48.840;10.064;2023-04-02T05:34:28;95935.28;;;7.69;nan
34328;BME280;20588;48.840;10.064;2023-04-02T05:36:55;95930.97;;;7.69;nan
34328;BME280;20588;48.840;10.064;2023-04-02T05:39:22;95942.75;;;7.70;nan
34328;BME280;20588;48.840;10.064;2023-04-02T05:41:58;95946.28;;;7.76;nan
34328;BME280;20588;48.840;10.064;2023-04-02T05:44:30;95945.50;;;7.75;nan
34328;BME280;20588;48.840;10.064;2023-04-02T05:47:00;95945.66;;;7.80;nan
34328;BME280;20588;48.840;10.064;2023-04-02T05:52:02;95945.81;;;7.85;nan
34328;BME280;20588;48.840;10.064;2023-04-02T05:54:41;95960.41;;;7.85;nan
34328;BME280;20588;48.840;10.064;2023-04-02T05:57:12;95959.22;;;7.87;nan
34328;BME280;20588;48.840;10.064;2023-04-02T05:59:44;95957.81;;;7.91;nan
34328;BME280;20588;48.840;10.064;2023-04-02T06:05:06;95969.38;;;8.00;nan
34328;BME280;20588;48.840;10.064;2023-04-02T06:07:54;95975.25;;;8.07;nan
34328;BME280;20588;48.840;10.064;2023-04-02T06:10:34;95972.06;;;8.12;nan
34328;BME280;20588;48.840;10.064;2023-04-02T06:13:06;95982.09;;;8.13;nan
34328;BME280;20588;48.840;10.064;2023-04-02T06:15:35;95979.34;;;8.15;nan
34328;BME280;20588;48.840;10.064;2023-04-02T06:18:06;95985.81;;;8.17;nan
34328;BME280;20588;48.840;10.064;2023-04-02T06:20:33;95992.28;;;8.20;nan
34328;BME280;20588;48.840;10.064;2023-04-02T06:23:20;95992.09;;;8.21;nan
34328;BME280;20588;48.840;10.064;2023-04-02T06:26:15;96002.94;;;8.23;nan
34328;BME280;20588;48.840;10.064;2023-04-02T06:31:29;96004.13;;;8.21;nan
34328;BME280;20588;48.840;10.064;2023-04-02T06:33:59;96010.22;;;8.26;nan
34328;BME280;20588;48.840;10.064;2023-04-02T06:36:26;96013.72;;;8.32;nan
34328;BME280;20588;48.840;10.064;2023-04-02T06:38:56;96014.69;;;8.37;nan
34328;BME280;20588;48.840;10.064;2023-04-02T06:41:24;96024.94;;;8.37;nan
34328;BME280;20588;48.840;10.064;2023-04-02T06:44:01;96029.22;;;8.43;nan
34328;BME280;20588;48.840;10.064;2023-04-02T06:46:42;96027.41;;;8.50;nan
34328;BME280;20588;48.840;10.064;2023-04-02T06:49:37;96036.81;;;8.56;nan
34328;BME280;20588;48.840;10.064;2023-04-02T06:52:10;96041.50;;;8.66;nan
34328;BME280;20588;48.840;10.064;2023-04-02T06:54:38;96043.03;;;8.67;nan
34328;BME280;20588;48.840;10.064;2023-04-02T06:57:06;96046.19;;;8.69;nan
34328;BME280;20588;48.840;10.064;2023-04-02T06:59:33;96047.53;;;8.71;nan
34328;BME280;20588;48.840;10.064;2023-04-02T07:02:11;96051.25;;;8.75;nan
34328;BME280;20588;48.840;10.064;2023-04-02T07:04:41;96048.47;;;8.77;nan
34328;BME280;20588;48.840;10.064;2023-04-02T07:07:07;96057.50;;;8.86;nan
34328;BME280;20588;48.840;10.064;2023-04-02T07:09:33;96059.88;;;8.87;nan
34328;BME280;20588;48.840;10.064;2023-04-02T07:11:59;96065.56;;;8.89;nan
34328;BME280;20588;48.840;10.064;2023-04-02T07:14:25;96070.25;;;8.92;nan
34328;BME280;20588;48.840;10.064;2023-04-02T07:16:52;96066.34;;;8.90;nan
34328;BME280;20588;48.840;10.064;2023-04-02T07:19:20;96075.59;;;8.91;nan
34328;BME280;20588;48.840;10.064;2023-04-02T07:21:47;96088.09;;;8.87;nan
34328;BME280;20588;48.840;10.064;2023-04-02T07:24:13;96073.47;;;8.88;nan
34328;BME280;20588;48.840;10.064;2023-04-02T07:26:40;96083.50;;;8.89;nan
34328;BME280;20588;48.840;10.064;2023-04-02T07:29:07;96080.53;;;8.92;nan
34328;BME280;20588;48.840;10.064;2023-04-02T07:31:34;96087.97;;;9.00;nan
34328;BME280;20588;48.840;10.064;2023-04-02T07:34:04;96093.25;;;9.05;nan
34328;BME280;20588;48.840;10.064;2023-04-02T07:36:31;96090.41;;;9.13;nan
34328;BME280;20588;48.840;10.064;2023-04-02T07:38:57;96100.56;;;9.27;nan
34328;BME280;20588;48.840;10.064;2023-04-02T07:41:23;96098.94;;;9.32;nan
34328;BME280;20588;48.840;10.064;2023-04-02T07:43:51;96105.00;;;9.38;nan
34328;BME280;20588;48.840;10.064;2023-04-02T07:46:17;96106.44;;;9.52;nan
34328;BME280;20588;48.840;10.064;2023-04-02T07:48:45;96107.94;;;9.59;nan
34328;BME280;20588;48.840;10.064;2023-04-02T07:51:32;96113.00;;;9.66;nan
34328;BME280;20588;48.840;10.064;2023-04-02T07:53:58;96111.31;;;9.78;nan
34328;BME280;20588;48.840;10.064;2023-04-02T07:56:26;96112.16;;;9.90;nan
34328;BME280;20588;48.840;10.064;2023-04-02T07:58:53;96118.00;;;9.97;nan
34328;BME280;20588;48.840;10.064;2023-04-02T08:01:22;96118.22;;;10.13;nan
34328;BME280;20588;48.840;10.064;2023-04-02T08:03:52;96113.34;;;10.23;nan
34328;BME280;20588;48.840;10.064;2023-04-02T08:06:19;96128.50;;;10.31;nan
34328;BME280;20588;48.840;10.064;2023-04-02T08:08:46;96134.97;;;10.34;nan
34328;BME280;20588;48.840;10.064;2023-04-02T08:11:12;96130.13;;;10.26;nan
34328;BME280;20588;48.840;10.064;2023-04-02T08:13:38;96134.47;;;10.25;nan
34328;BME280;20588;48.840;10.064;2023-04-02T08:16:06;96141.44;;;10.25;nan
34328;BME280;20588;48.840;10.064;2023-04-02T08:18:32;96133.13;;;10.23;nan
34328;BME280;20588;48.840;10.064;2023-04-02T08:20:59;96141.44;;;10.25;nan
34328;BME280;20588;48.840;10.064;2023-04-02T08:23:26;96142.41;;;10.24;nan
34328;BME280;20588;48.840;10.064;2023-04-02T08:25:53;96145.78;;;10.24;nan
34328;BME280;20588;48.840;10.064;2023-04-02T08:28:20;96154.28;;;10.25;nan
34328;BME280;20588;48.840;10.064;2023-04-02T08:30:47;96157.63;;;10.25;nan
34328;BME280;20588;48.840;10.064;2023-04-02T08:33:15;96165.47;;;10.30;nan
34328;BME280;20588;48.840;10.064;2023-04-02T08:35:41;96167.28;;;10.30;nan
34328;BME280;20588;48.840;10.064;2023-04-02T08:38:08;96170.47;;;10.25;nan
34328;BME280;20588;48.840;10.064;2023-04-02T08:40:38;96165.97;;;10.21;nan
34328;BME280;20588;48.840;10.064;2023-04-02T08:43:29;96182.41;;;10.20;nan
34328;BME280;20588;48.840;10.064;2023-04-02T08:46:08;96172.84;;;10.27;nan
34328;BME280;20588;48.840;10.064;2023-04-02T08:48:39;96179.78;;;10.26;nan
34328;BME280;20588;48.840;10.064;2023-04-02T08:51:24;96178.00;;;10.27;nan
34328;BME280;20588;48.840;10.064;2023-04-02T08:53:54;96185.28;;;10.30;nan
34328;BME280;20588;48.840;10.064;2023-04-02T08:56:41;96189.25;;;10.44;nan
34328;BME280;20588;48.840;10.064;2023-04-02T09:04:24;96198.59;;;10.56;nan
34328;BME280;20588;48.840;10.064;2023-04-02T09:06:54;96203.66;;;10.63;nan
34328;BME280;20588;48.840;10.064;2023-04-02T09:09:22;96210.59;;;10.62;nan
34328;BME280;20588;48.840;10.064;2023-04-02T09:11:53;96207.00;;;10.63;nan
34328;BME280;20588;48.840;10.064;2023-04-02T09:14:27;96212.50;;;10.67;nan
34328;BME280;20588;48.840;10.064;2023-04-02T09:17:02;96213.97;;;10.63;nan
34328;BME280;20588;48.840;10.064;2023-04-02T09:19:40;96219.88;;;10.63;nan
34328;BME280;20588;48.840;10.064;2023-04-02T09:22:27;96218.09;;;10.64;nan
34328;BME280;20588;48.840;10.064;2023-04-02T09:24:55;96225.16;;;10.68;nan
34328;BME280;20588;48.840;10.064;2023-04-02T09:27:25;96226.50;;;10.71;nan
34328;BME280;20588;48.840;10.064;2023-04-02T09:32:54;96236.16;;;10.75;nan
34328;BME280;20588;48.840;10.064;2023-04-02T09:35:24;96236.94;;;10.76;nan
34328;BME280;20588;48.840;10.064;2023-04-02T09:38:15;96240.97;;;10.72;nan
34328;BME280;20588;48.840;10.064;2023-04-02T09:40:44;96243.81;;;10.64;nan
34328;BME280;20588;48.840;10.064;2023-04-02T09:43:14;96251.53;;;10.64;nan
34328;BME280;20588;48.840;10.064;2023-04-02T09:45:42;96248.75;;;10.65;nan
34328;BME280;20588;48.840;10.064;2023-04-02T09:48:24;96247.97;;;10.65;nan
34328;BME280;20588;48.840;10.064;2023-04-02T09:51:16;96256.50;;;10.77;nan
34328;BME280;20588;48.840;10.064;2023-04-02T09:53:46;96264.16;;;10.83;nan
34328;BME280;20588;48.840;10.064;2023-04-02T09:56:15;96263.06;;;10.91;nan
34328;BME280;20588;48.840;10.064;2023-04-02T09:58:43;96265.34;;;10.99;nan
34328;BME280;20588;48.840;10.064;2023-04-02T10:01:30;96271.91;;;11.13;nan
34328;BME280;20588;48.840;10.064;2023-04-02T10:03:57;96273.16;;;11.22;nan
34328;BME280;20588;48.840;10.064;2023-04-02T10:06:26;96276.88;;;11.38;nan
34328;BME280;20588;48.840;10.064;2023-04-02T10:08:53;96273.47;;;11.55;nan
34328;BME280;20588;48.840;10.064;2023-04-02T10:11:29;96277.53;;;11.74;nan
34328;BME280;20588;48.840;10.064;2023-04-02T10:14:05;96278.56;;;11.85;nan
34328;BME280;20588;48.840;10.064;2023-04-02T10:16:54;96284.88;;;11.89;nan
34328;BME280;20588;48.840;10.064;2023-04-02T10:19:41;96291.69;;;11.83;nan
34328;BME280;20588;48.840;10.064;2023-04-02T10:22:16;96288.88;;;11.73;nan
34328;BME280;20588;48.840;10.064;2023-04-02T10:24:43;96283.50;;;11.75;nan
34328;BME280;20588;48.840;10.064;2023-04-02T10:27:32;96285.28;;;11.63;nan
34328;BME280;20588;48.840;10.064;2023-04-02T10:32:54;96296.16;;;11.47;nan
34328;BME280;20588;48.840;10.064;2023-04-02T10:35:43;96296.50;;;11.39;nan
34328;BME280;20588;48.840;10.064;2023-04-02T10:38:40;96296.59;;;11.32;nan
34328;BME280;20588;48.840;10.064;2023-04-02T10:44:20;96304.50;;;11.19;nan
34328;BME280;20588;48.840;10.064;2023-04-02T10:47:06;96307.31;;;11.18;nan
34328;BME280;20588;48.840;10.064;2023-04-02T10:49:47;96309.66;;;11.19;nan
34328;BME280;20588;48.840;10.064;2023-04-02T10:52:44;96317.84;;;11.28;nan
34328;BME280;20588;48.840;10.064;2023-04-02T10:55:19;96319.47;;;11.40;nan
34328;BME280;20588;48.840;10.064;2023-04-02T10:57:47;96312.66;;;11.57;nan
34328;BME280;20588;48.840;10.064;2023-04-02T11:00:15;96308.47;;;11.74;nan
34328;BME280;20588;48.840;10.064;2023-04-02T11:05:31;96312.78;;;12.03;nan
34328;BME280;20588;48.840;10.064;2023-04-02T11:08:21;96312.00;;;12.26;nan
34328;BME280;20588;48.840;10.064;2023-04-02T11:11:00;96307.13;;;12.64;nan
34328;BME280;20588;48.840;10.064;2023-04-02T11:13:41;96315.56;;;12.99;nan
34328;BME280;20588;48.840;10.064;2023-04-02T11:16:12;96319.84;;;13.33;nan
34328;BME280;20588;48.840;10.064;2023-04-02T11:18:40;96319.50;;;13.58;nan
34328;BME280;20588;48.840;10.064;2023-04-02T11:24:00;96333.03;;;13.48;nan
34328;BME280;20588;48.840;10.064;2023-04-02T11:26:41;96329.94;;;13.35;nan
34328;BME280;20588;48.840;10.064;2023-04-02T11:29:27;96330.41;;;13.32;nan
34328;BME280;20588;48.840;10.064;2023-04-02T11:37:40;96346.47;;;13.78;nan
34328;BME280;20588;48.840;10.064;2023-04-02T11:42:43;96356.94;;;14.00;nan
34328;BME280;20588;48.840;10.064;2023-04-02T11:50:40;96362.75;;;14.07;nan
34328;BME280;20588;48.840;10.064;2023-04-02T11:55:40;96363.13;;;14.48;nan
34328;BME280;20588;48.840;10.064;2023-04-02T12:07:18;96366.13;;;15.91;nan
34328;BME280;20588;48.840;10.064;2023-04-02T12:09:54;96367.25;;;16.05;nan
34328;BME280;20588;48.840;10.064;2023-04-02T12:12:38;96368.03;;;16.06;nan
34328;BME280;20588;48.840;10.064;2023-04-02T12:18:01;96363.75;;;15.63;nan
34328;BME280;20588;48.840;10.064;2023-04-02T12:20:29;96370.25;;;15.39;nan
34328;BME280;20588;48.840;10.064;2023-04-02T12:22:56;96365.44;;;15.26;nan
34328;BME280;20588;48.840;10.064;2023-04-02T12:25:30;96375.66;;;15.16;nan
34328;BME280;20588;48.840;10.064;2023-04-02T12:30:36;96379.16;;;15.27;nan
34328;BME280;20588;48.840;10.064;2023-04-02T12:35:49;96381.75;;;15.48;nan
34328;BME280;20588;48.840;10.064;2023-04-02T12:38:25;96379.72;;;15.77;nan
34328;BME280;20588;48.840;10.064;2023-04-02T12:41:00;96386.22;;;16.06;nan
34328;BME280;20588;48.840;10.064;2023-04-02T12:43:30;96381.63;;;16.18;nan
34328;BME280;20588;48.840;10.064;2023-04-02T12:46:04;96381.84;;;16.43;nan
34328;BME280;20588;48.840;10.064;2023-04-02T12:48:33;96387.75;;;16.70;nan
34328;BME280;20588;48.840;10.064;2023-04-02T12:51:00;96401.81;;;16.74;nan
34328;BME280;20588;48.840;10.064;2023-04-02T12:53:34;96401.66;;;16.49;nan
34328;BME280;20588;48.840;10.064;2023-04-02T12:56:01;96404.63;;;16.04;nan
34328;BME280;20588;48.840;10.064;2023-04-02T12:58:37;96415.78;;;15.30;nan
34328;BME280;20588;48.840;10.064;2023-04-02T13:01:18;96414.81;;;14.60;nan
34328;BME280;20588;48.840;10.064;2023-04-02T13:04:05;96421.81;;;14.10;nan
34328;BME280;20588;48.840;10.064;2023-04-02T13:06:35;96424.41;;;13.54;nan
34328;BME280;20588;48.840;10.064;2023-04-02T13:09:04;96423.84;;;13.24;nan
34328;BME280;20588;48.840;10.064;2023-04-02T13:11:38;96424.50;;;12.85;nan
34328;BME280;20588;48.840;10.064;2023-04-02T13:14:08;96425.53;;;12.49;nan
34328;BME280;20588;48.840;10.064;2023-04-02T13:16:41;96424.50;;;12.27;nan
34328;BME280;20588;48.840;10.064;2023-04-02T13:21:43;96434.13;;;12.08;nan
34328;BME280;20588;48.840;10.064;2023-04-02T13:24:21;96430.81;;;11.90;nan
34328;BME280;20588;48.840;10.064;2023-04-02T13:26:48;96439.72;;;11.76;nan
34328;BME280;20588;48.840;10.064;2023-04-02T13:29:28;96440.38;;;11.71;nan
34328;BME280;20588;48.840;10.064;2023-04-02T13:32:03;96437.00;;;11.71;nan
34328;BME280;20588;48.840;10.064;2023-04-02T13:34:30;96451.50;;;11.54;nan
34328;BME280;20588;48.840;10.064;2023-04-02T13:36:56;96455.44;;;11.38;nan
34328;BME280;20588;48.840;10.064;2023-04-02T13:39:23;96450.53;;;11.19;nan
34328;BME280;20588;48.840;10.064;2023-04-02T13:41:54;96453.09;;;11.01;nan
34328;BME280;20588;48.840;10.064;2023-04-02T13:44:28;96471.16;;;10.94;nan
34328;BME280;20588;48.840;10.064;2023-04-02T13:46:55;96466.03;;;10.94;nan
34328;BME280;20588;48.840;10.064;2023-04-02T13:49:23;96465.44;;;10.92;nan
34328;BME280;20588;48.840;10.064;2023-04-02T13:51:54;96464.88;;;10.90;nan
34328;BME280;20588;48.840;10.064;2023-04-02T13:54:45;96468.16;;;10.79;nan
34328;BME280;20588;48.840;10.064;2023-04-02T13:57:13;96475.09;;;10.54;nan
34328;BME280;20588;48.840;10.064;2023-04-02T13:59:40;96480.72;;;10.44;nan
34328;BME280;20588;48.840;10.064;2023-04-02T14:02:17;96478.81;;;10.33;nan
34328;BME280;20588;48.840;10.064;2023-04-02T14:04:49;96482.84;;;10.23;nan
34328;BME280;20588;48.840;10.064;2023-04-02T14:07:20;96490.97;;;10.20;nan
34328;BME280;20588;48.840;10.064;2023-04-02T14:13:07;96493.13;;;10.23;nan
34328;BME280;20588;48.840;10.064;2023-04-02T14:15:38;96492.19;;;10.17;nan
34328;BME280;20588;48.840;10.064;2023-04-02T14:23:40;96507.63;;;10.11;nan
34328;BME280;20588;48.840;10.064;2023-04-02T14:28:56;96514.00;;;10.02;nan
34328;BME280;20588;48.840;10.064;2023-04-02T14:31:33;96518.72;;;10.11;nan
34328;BME280;20588;48.840;10.064;2023-04-02T14:39:47;96524.81;;;10.48;nan
34328;BME280;20588;48.840;10.064;2023-04-02T14:45:08;96533.13;;;9.68;nan
34328;BME280;20588;48.840;10.064;2023-04-02T14:47:49;96537.25;;;9.76;nan
34328;BME280;20588;48.840;10.064;2023-04-02T14:50:25;96546.50;;;9.83;nan
34328;BME280;20588;48.840;10.064;2023-04-02T14:52:57;96539.34;;;9.41;nan
34328;BME280;20588;48.840;10.064;2023-04-02T14:55:36;96550.41;;;9.35;nan
34328;BME280;20588;48.840;10.064;2023-04-02T14:58:08;96552.81;;;9.24;nan
34328;BME280;20588;48.840;10.064;2023-04-02T15:00:39;96550.69;;;8.94;nan
34328;BME280;20588;48.840;10.064;2023-04-02T15:03:58;96560.34;;;8.92;nan
34328;BME280;20588;48.840;10.064;2023-04-02T15:06:39;96561.34;;;8.72;nan
34328;BME280;20588;48.840;10.064;2023-04-02T15:09:12;96565.09;;;8.63;nan
34328;BME280;20588;48.840;10.064;2023-04-02T15:11:50;96572.19;;;8.67;nan
34328;BME280;20588;48.840;10.064;2023-04-02T15:14:20;96561.91;;;8.74;nan
34328;BME280;20588;48.840;10.064;2023-04-02T15:16:47;96569.81;;;8.72;nan
34328;BME280;20588;48.840;10.064;2023-04-02T15:19:16;96576.34;;;8.81;nan
34328;BME280;20588;48.840;10.064;2023-04-02T15:28:05;96583.81;;;8.89;nan
34328;BME280;20588;48.840;10.064;2023-04-02T15:30:41;96590.34;;;8.79;nan
34328;BME280;20588;48.840;10.064;2023-04-02T15:38:43;96590.34;;;8.79;nan
34328;BME280;20588;48.840;10.064;2023-04-02T15:41:22;96599.81;;;8.85;nan
34328;BME280;20588;48.840;10.064;2023-04-02T15:44:12;96594.69;;;8.85;nan
34328;BME280;20588;48.840;10.064;2023-04-02T15:49:49;96605.53;;;8.74;nan
34328;BME280;20588;48.840;10.064;2023-04-02T15:52:42;96615.22;;;8.72;nan
34328;BME280;20588;48.840;10.064;2023-04-02T15:55:25;96615.78;;;8.67;nan
34328;BME280;20588;48.840;10.064;2023-04-02T16:00:25;96622.66;;;8.60;nan
34328;BME280;20588;48.840;10.064;2023-04-02T16:06:19;96638.78;;;8.35;nan
34328;BME280;20588;48.840;10.064;2023-04-02T16:11:45;96641.06;;;8.10;nan
34328;BME280;20588;48.840;10.064;2023-04-02T16:14:25;96646.72;;;8.06;nan
34328;BME280;20588;48.840;10.064;2023-04-02T16:17:02;96653.53;;;7.86;nan
34328;BME280;20588;48.840;10.064;2023-04-02T16:19:52;96651.69;;;7.73;nan
34328;BME280;20588;48.840;10.064;2023-04-02T16:22:28;96647.56;;;7.79;nan
34328;BME280;20588;48.840;10.064;2023-04-02T16:25:09;96653.72;;;7.84;nan
34328;BME280;20588;48.840;10.064;2023-04-02T16:27:45;96658.00;;;7.77;nan
34328;BME280;20588;48.840;10.064;2023-04-02T16:34:01;96678.06;;;7.67;nan
34328;BME280;20588;48.840;10.064;2023-04-02T16:38:57;96687.31;;;7.68;nan
34328;BME280;20588;48.840;10.064;2023-04-02T16:42:00;96689.00;;;7.55;nan
34328;BME280;20588;48.840;10.064;2023-04-02T16:44:35;96699.56;;;7.45;nan
34328;BME280;20588;48.840;10.064;2023-04-02T16:47:38;96696.28;;;7.30;nan
34328;BME280;20588;48.840;10.064;2023-04-02T16:53:42;96713.78;;;7.26;nan
34328;BME280;20588;48.840;10.064;2023-04-02T17:04:57;96724.88;;;7.33;nan
34328;BME280;20588;48.840;10.064;2023-04-02T17:07:43;96721.28;;;7.28;nan
34328;BME280;20588;48.840;10.064;2023-04-02T17:10:31;96726.09;;;7.16;nan
34328;BME280;20588;48.840;10.064;2023-04-02T17:13:14;96734.31;;;7.12;nan
34328;BME280;20588;48.840;10.064;2023-04-02T17:15:44;96736.88;;;7.12;nan
34328;BME280;20588;48.840;10.064;2023-04-02T17:18:17;96745.91;;;7.08;nan